sensor_id;sensor_type;location;lat;lon;timestamp;P1;durP1;ratioP1;P2;durP2;ratioP2
78410;SDS011;67706;51.074;-1.796;2023-03-01T00:02:14;3.05;;;1.00;;
78410;SDS011;67706;51.074;-1.796;2023-03-01T00:04:42;1.27;;;0.88;;
78410;SDS011;67706;51.074;-1.796;2023-03-01T00:07:08;0.80;;;0.63;;
78410;SDS011;67706;51.074;-1.796;2023-03-01T00:09:35;1.10;;;0.65;;
78410;SDS011;67706;51.074;-1.796;2023-03-01T00:12:03;1.67;;;1.10;;
78410;SDS011;67706;51.074;-1.796;2023-03-01T00:14:31;2.45;;;1.60;;
78410;SDS011;67706;51.074;-1.796;2023-03-01T00:16:58;1.33;;;0.75;;
78410;SDS011;67706;51.074;-1.796;2023-03-01T00:19:25;1.52;;;1.02;;
78410;SDS011;67706;51.074;-1.796;2023-03-01T00:21:53;2.20;;;0.98;;
78410;SDS011;67706;51.074;-1.796;2023-03-01T00:24:20;1.45;;;0.93;;
78410;SDS011;67706;51.074;-1.796;2023-03-01T00:26:46;2.40;;;1.40;;
78410;SDS011;67706;51.074;-1.796;2023-03-01T00:31:40;1.45;;;0.90;;
78410;SDS011;67706;51.074;-1.796;2023-03-01T00:34:06;1.70;;;1.02;;
78410;SDS011;67706;51.074;-1.796;2023-03-01T00:36:34;2.08;;;1.23;;
78410;SDS011;67706;51.074;-1.796;2023-03-01T00:39:04;2.63;;;1.17;;
78410;SDS011;67706;51.074;-1.796;2023-03-01T00:41:33;2.17;;;1.17;;
78410;SDS011;67706;51.074;-1.796;2023-03-01T00:44:00;2.92;;;1.13;;
78410;SDS011;67706;51.074;-1.796;2023-03-01T00:46:27;2.40;;;1.42;;
78410;SDS011;67706;51.074;-1.796;2023-03-01T00:48:55;1.63;;;1.17;;
78410;SDS011;67706;51.074;-1.796;2023-03-01T00:51:23;4.43;;;1.20;;
78410;SDS011;67706;51.074;-1.796;2023-03-01T00:53:51;2.22;;;1.20;;
78410;SDS011;67706;51.074;-1.796;2023-03-01T00:56:20;2.00;;;1.10;;
78410;SDS011;67706;51.074;-1.796;2023-03-01T00:58:47;2.08;;;1.35;;
78410;SDS011;67706;51.074;-1.796;2023-03-01T01:01:15;3.45;;;1.80;;
78410;SDS011;67706;51.074;-1.796;2023-03-01T01:03:44;3.78;;;1.40;;
78410;SDS011;67706;51.074;-1.796;2023-03-01T01:06:17;2.63;;;1.33;;
78410;SDS011;67706;51.074;-1.796;2023-03-01T01:08:47;2.88;;;1.27;;
78410;SDS011;67706;51.074;-1.796;2023-03-01T01:11:14;2.42;;;1.60;;
78410;SDS011;67706;51.074;-1.796;2023-03-01T01:13:43;2.72;;;1.30;;
78410;SDS011;67706;51.074;-1.796;2023-03-01T01:16:10;2.30;;;1.20;;
78410;SDS011;67706;51.074;-1.796;2023-03-01T01:18:38;4.75;;;1.38;;
78410;SDS011;67706;51.074;-1.796;2023-03-01T01:21:06;4.43;;;1.77;;
78410;SDS011;67706;51.074;-1.796;2023-03-01T01:23:34;2.85;;;1.50;;
78410;SDS011;67706;51.074;-1.796;2023-03-01T01:26:05;2.08;;;1.50;;
78410;SDS011;67706;51.074;-1.796;2023-03-01T01:28:32;2.70;;;1.67;;
78410;SDS011;67706;51.074;-1.796;2023-03-01T01:31:00;3.30;;;1.52;;
78410;SDS011;67706;51.074;-1.796;2023-03-01T01:33:27;4.38;;;1.65;;
78410;SDS011;67706;51.074;-1.796;2023-03-01T01:35:54;2.78;;;1.60;;
78410;SDS011;67706;51.074;-1.796;2023-03-01T01:38:21;2.20;;;1.23;;
78410;SDS011;67706;51.074;-1.796;2023-03-01T01:40:48;2.88;;;1.63;;
78410;SDS011;67706;51.074;-1.796;2023-03-01T01:43:19;3.30;;;1.65;;
78410;SDS011;67706;51.074;-1.796;2023-03-01T01:45:48;3.33;;;2.00;;
78410;SDS011;67706;51.074;-1.796;2023-03-01T01:48:18;3.95;;;1.80;;
78410;SDS011;67706;51.074;-1.796;2023-03-01T01:50:49;4.07;;;1.90;;
78410;SDS011;67706;51.074;-1.796;2023-03-01T01:53:21;5.32;;;2.35;;
78410;SDS011;67706;51.074;-1.796;2023-03-01T01:55:50;4.70;;;2.40;;
78410;SDS011;67706;51.074;-1.796;2023-03-01T01:58:22;3.28;;;1.60;;
78410;SDS011;67706;51.074;-1.796;2023-03-01T02:00:52;3.72;;;2.00;;
78410;SDS011;67706;51.074;-1.796;2023-03-01T02:03:22;3.58;;;2.00;;
78410;SDS011;67706;51.074;-1.796;2023-03-01T02:05:55;3.85;;;1.90;;
78410;SDS011;67706;51.074;-1.796;2023-03-01T02:08:28;3.70;;;2.38;;
78410;SDS011;67706;51.074;-1.796;2023-03-01T02:10:58;2.38;;;1.50;;
78410;SDS011;67706;51.074;-1.796;2023-03-01T02:13:25;3.80;;;2.08;;
78410;SDS011;67706;51.074;-1.796;2023-03-01T02:15:52;3.60;;;1.75;;
78410;SDS011;67706;51.074;-1.796;2023-03-01T02:18:20;3.70;;;1.95;;
78410;SDS011;67706;51.074;-1.796;2023-03-01T02:20:53;5.35;;;1.92;;
78410;SDS011;67706;51.074;-1.796;2023-03-01T02:23:31;2.97;;;1.48;;
78410;SDS011;67706;51.074;-1.796;2023-03-01T02:26:01;3.65;;;1.80;;
78410;SDS011;67706;51.074;-1.796;2023-03-01T02:28:34;3.22;;;1.50;;
78410;SDS011;67706;51.074;-1.796;2023-03-01T02:31:03;4.15;;;2.22;;
78410;SDS011;67706;51.074;-1.796;2023-03-01T02:33:50;2.97;;;1.70;;
78410;SDS011;67706;51.074;-1.796;2023-03-01T02:36:19;2.90;;;1.67;;
78410;SDS011;67706;51.074;-1.796;2023-03-01T02:38:48;3.67;;;2.05;;
78410;SDS011;67706;51.074;-1.796;2023-03-01T02:41:18;3.78;;;2.08;;
78410;SDS011;67706;51.074;-1.796;2023-03-01T02:43:47;3.58;;;1.73;;
78410;SDS011;67706;51.074;-1.796;2023-03-01T02:46:14;3.00;;;1.73;;
78410;SDS011;67706;51.074;-1.796;2023-03-01T02:48:44;2.75;;;1.42;;
78410;SDS011;67706;51.074;-1.796;2023-03-01T02:51:22;3.13;;;1.73;;
78410;SDS011;67706;51.074;-1.796;2023-03-01T02:54:08;5.15;;;1.80;;
78410;SDS011;67706;51.074;-1.796;2023-03-01T02:56:41;2.33;;;1.38;;
78410;SDS011;67706;51.074;-1.796;2023-03-01T02:59:10;1.90;;;1.50;;
78410;SDS011;67706;51.074;-1.796;2023-03-01T03:01:38;5.63;;;1.50;;
78410;SDS011;67706;51.074;-1.796;2023-03-01T03:04:08;2.90;;;1.38;;
78410;SDS011;67706;51.074;-1.796;2023-03-01T03:06:36;2.05;;;1.40;;
78410;SDS011;67706;51.074;-1.796;2023-03-01T03:09:02;3.40;;;1.80;;
78410;SDS011;67706;51.074;-1.796;2023-03-01T03:11:30;2.33;;;1.08;;
78410;SDS011;67706;51.074;-1.796;2023-03-01T03:13:58;1.95;;;1.33;;
78410;SDS011;67706;51.074;-1.796;2023-03-01T03:16:26;2.63;;;1.50;;
78410;SDS011;67706;51.074;-1.796;2023-03-01T03:18:54;1.92;;;1.20;;
78410;SDS011;67706;51.074;-1.796;2023-03-01T03:21:30;2.38;;;1.20;;
78410;SDS011;67706;51.074;-1.796;2023-03-01T03:23:57;3.20;;;1.20;;
78410;SDS011;67706;51.074;-1.796;2023-03-01T03:26:24;3.38;;;1.35;;
78410;SDS011;67706;51.074;-1.796;2023-03-01T03:28:50;4.25;;;1.40;;
78410;SDS011;67706;51.074;-1.796;2023-03-01T03:31:17;1.50;;;1.10;;
78410;SDS011;67706;51.074;-1.796;2023-03-01T03:33:45;1.77;;;1.00;;
78410;SDS011;67706;51.074;-1.796;2023-03-01T03:36:14;2.00;;;1.17;;
78410;SDS011;67706;51.074;-1.796;2023-03-01T03:38:43;2.35;;;1.40;;
78410;SDS011;67706;51.074;-1.796;2023-03-01T03:41:10;2.47;;;1.48;;
78410;SDS011;67706;51.074;-1.796;2023-03-01T03:43:38;2.75;;;1.00;;
78410;SDS011;67706;51.074;-1.796;2023-03-01T03:46:07;2.80;;;1.40;;
78410;SDS011;67706;51.074;-1.796;2023-03-01T03:48:36;3.50;;;1.25;;
78410;SDS011;67706;51.074;-1.796;2023-03-01T03:51:06;2.17;;;1.27;;
78410;SDS011;67706;51.074;-1.796;2023-03-01T03:53:33;1.88;;;1.30;;
78410;SDS011;67706;51.074;-1.796;2023-03-01T03:56:00;2.60;;;1.55;;
78410;SDS011;67706;51.074;-1.796;2023-03-01T04:00:54;2.75;;;1.40;;
78410;SDS011;67706;51.074;-1.796;2023-03-01T04:03:22;2.75;;;1.40;;
78410;SDS011;67706;51.074;-1.796;2023-03-01T04:05:50;3.55;;;1.75;;
78410;SDS011;67706;51.074;-1.796;2023-03-01T04:08:19;3.00;;;1.70;;
78410;SDS011;67706;51.074;-1.796;2023-03-01T04:10:47;4.47;;;1.85;;
78410;SDS011;67706;51.074;-1.796;2023-03-01T04:13:16;2.83;;;1.55;;
78410;SDS011;67706;51.074;-1.796;2023-03-01T04:15:44;2.95;;;1.65;;
78410;SDS011;67706;51.074;-1.796;2023-03-01T04:18:11;3.55;;;2.00;;
78410;SDS011;67706;51.074;-1.796;2023-03-01T04:20:40;4.03;;;1.80;;
78410;SDS011;67706;51.074;-1.796;2023-03-01T04:23:08;3.42;;;1.80;;
78410;SDS011;67706;51.074;-1.796;2023-03-01T04:25:40;3.10;;;1.60;;
78410;SDS011;67706;51.074;-1.796;2023-03-01T04:28:09;4.05;;;1.98;;
78410;SDS011;67706;51.074;-1.796;2023-03-01T04:30:36;4.65;;;1.73;;
78410;SDS011;67706;51.074;-1.796;2023-03-01T04:33:04;2.90;;;1.48;;
78410;SDS011;67706;51.074;-1.796;2023-03-01T04:35:32;3.58;;;1.80;;
78410;SDS011;67706;51.074;-1.796;2023-03-01T04:37:59;2.50;;;1.58;;
78410;SDS011;67706;51.074;-1.796;2023-03-01T04:42:54;2.72;;;1.50;;
78410;SDS011;67706;51.074;-1.796;2023-03-01T04:45:20;3.05;;;1.52;;
78410;SDS011;67706;51.074;-1.796;2023-03-01T04:47:47;6.32;;;1.98;;
78410;SDS011;67706;51.074;-1.796;2023-03-01T04:50:15;4.22;;;2.00;;
78410;SDS011;67706;51.074;-1.796;2023-03-01T04:52:45;3.42;;;1.77;;
78410;SDS011;67706;51.074;-1.796;2023-03-01T04:55:12;2.60;;;1.60;;
78410;SDS011;67706;51.074;-1.796;2023-03-01T04:57:40;3.70;;;1.75;;
78410;SDS011;67706;51.074;-1.796;2023-03-01T05:00:11;4.75;;;2.13;;
78410;SDS011;67706;51.074;-1.796;2023-03-01T05:02:48;5.38;;;2.03;;
78410;SDS011;67706;51.074;-1.796;2023-03-01T05:05:22;5.15;;;2.13;;
78410;SDS011;67706;51.074;-1.796;2023-03-01T05:07:56;5.05;;;2.00;;
78410;SDS011;67706;51.074;-1.796;2023-03-01T05:10:25;3.88;;;2.00;;
78410;SDS011;67706;51.074;-1.796;2023-03-01T05:12:54;4.47;;;2.20;;
78410;SDS011;67706;51.074;-1.796;2023-03-01T05:15:23;3.75;;;1.90;;
78410;SDS011;67706;51.074;-1.796;2023-03-01T05:17:52;3.65;;;2.00;;
78410;SDS011;67706;51.074;-1.796;2023-03-01T05:20:19;4.18;;;2.65;;
78410;SDS011;67706;51.074;-1.796;2023-03-01T05:22:48;3.45;;;1.75;;
78410;SDS011;67706;51.074;-1.796;2023-03-01T05:25:15;3.05;;;1.60;;
78410;SDS011;67706;51.074;-1.796;2023-03-01T05:27:43;1.73;;;1.27;;
78410;SDS011;67706;51.074;-1.796;2023-03-01T05:32:41;2.40;;;1.13;;
78410;SDS011;67706;51.074;-1.796;2023-03-01T05:35:10;2.45;;;1.33;;
78410;SDS011;67706;51.074;-1.796;2023-03-01T05:37:38;2.85;;;1.35;;
78410;SDS011;67706;51.074;-1.796;2023-03-01T05:40:07;2.47;;;1.30;;
78410;SDS011;67706;51.074;-1.796;2023-03-01T05:42:41;2.60;;;1.33;;
78410;SDS011;67706;51.074;-1.796;2023-03-01T05:45:09;2.13;;;1.13;;
78410;SDS011;67706;51.074;-1.796;2023-03-01T05:47:37;2.67;;;1.02;;
78410;SDS011;67706;51.074;-1.796;2023-03-01T05:50:06;2.75;;;1.30;;
78410;SDS011;67706;51.074;-1.796;2023-03-01T05:52:33;3.33;;;1.25;;
78410;SDS011;67706;51.074;-1.796;2023-03-01T05:55:00;3.72;;;1.35;;
78410;SDS011;67706;51.074;-1.796;2023-03-01T05:59:54;2.17;;;1.23;;
78410;SDS011;67706;51.074;-1.796;2023-03-01T06:02:21;3.08;;;1.33;;
78410;SDS011;67706;51.074;-1.796;2023-03-01T06:04:48;2.58;;;1.30;;
78410;SDS011;67706;51.074;-1.796;2023-03-01T06:07:16;1.70;;;1.10;;
78410;SDS011;67706;51.074;-1.796;2023-03-01T06:09:42;1.92;;;1.08;;
78410;SDS011;67706;51.074;-1.796;2023-03-01T06:12:10;1.90;;;1.30;;
78410;SDS011;67706;51.074;-1.796;2023-03-01T06:14:36;1.98;;;1.00;;
78410;SDS011;67706;51.074;-1.796;2023-03-01T06:17:03;2.47;;;1.13;;
78410;SDS011;67706;51.074;-1.796;2023-03-01T06:21:56;5.35;;;1.33;;
78410;SDS011;67706;51.074;-1.796;2023-03-01T06:26:52;1.90;;;0.93;;
78410;SDS011;67706;51.074;-1.796;2023-03-01T06:29:19;2.22;;;1.45;;
78410;SDS011;67706;51.074;-1.796;2023-03-01T06:31:47;3.72;;;1.52;;
78410;SDS011;67706;51.074;-1.796;2023-03-01T06:34:14;1.98;;;1.27;;
78410;SDS011;67706;51.074;-1.796;2023-03-01T06:39:07;4.03;;;1.48;;
78410;SDS011;67706;51.074;-1.796;2023-03-01T06:41:35;3.58;;;1.50;;
78410;SDS011;67706;51.074;-1.796;2023-03-01T06:44:02;3.17;;;1.60;;
78410;SDS011;67706;51.074;-1.796;2023-03-01T06:46:29;3.60;;;1.60;;
78410;SDS011;67706;51.074;-1.796;2023-03-01T06:48:55;4.40;;;1.80;;
78410;SDS011;67706;51.074;-1.796;2023-03-01T06:51:22;2.78;;;1.63;;
78410;SDS011;67706;51.074;-1.796;2023-03-01T06:53:50;3.75;;;1.80;;
78410;SDS011;67706;51.074;-1.796;2023-03-01T06:58:44;3.03;;;1.67;;
78410;SDS011;67706;51.074;-1.796;2023-03-01T07:01:11;4.00;;;1.95;;
78410;SDS011;67706;51.074;-1.796;2023-03-01T07:06:04;3.08;;;1.75;;
78410;SDS011;67706;51.074;-1.796;2023-03-01T07:08:31;3.08;;;1.70;;
78410;SDS011;67706;51.074;-1.796;2023-03-01T07:13:26;2.80;;;1.20;;
78410;SDS011;67706;51.074;-1.796;2023-03-01T07:15:55;3.17;;;1.33;;
78410;SDS011;67706;51.074;-1.796;2023-03-01T07:18:22;3.53;;;1.60;;
78410;SDS011;67706;51.074;-1.796;2023-03-01T07:20:48;2.45;;;1.30;;
78410;SDS011;67706;51.074;-1.796;2023-03-01T07:23:15;3.28;;;1.52;;
78410;SDS011;67706;51.074;-1.796;2023-03-01T07:28:08;1.95;;;1.27;;
78410;SDS011;67706;51.074;-1.796;2023-03-01T07:30:35;2.40;;;1.13;;
78410;SDS011;67706;51.074;-1.796;2023-03-01T07:35:30;3.55;;;1.40;;
78410;SDS011;67706;51.074;-1.796;2023-03-01T07:37:58;3.88;;;1.50;;
78410;SDS011;67706;51.074;-1.796;2023-03-01T07:42:54;3.25;;;1.40;;
78410;SDS011;67706;51.074;-1.796;2023-03-01T07:45:21;2.92;;;1.30;;
78410;SDS011;67706;51.074;-1.796;2023-03-01T07:50:17;3.38;;;0.98;;
78410;SDS011;67706;51.074;-1.796;2023-03-01T07:52:44;1.90;;;1.13;;
78410;SDS011;67706;51.074;-1.796;2023-03-01T07:55:12;1.33;;;0.77;;
78410;SDS011;67706;51.074;-1.796;2023-03-01T07:57:39;1.15;;;0.80;;
78410;SDS011;67706;51.074;-1.796;2023-03-01T08:00:06;2.33;;;0.93;;
78410;SDS011;67706;51.074;-1.796;2023-03-01T08:02:36;1.42;;;0.73;;
78410;SDS011;67706;51.074;-1.796;2023-03-01T08:05:03;3.28;;;0.77;;
78410;SDS011;67706;51.074;-1.796;2023-03-01T08:07:32;1.83;;;0.80;;
78410;SDS011;67706;51.074;-1.796;2023-03-01T08:09:59;2.13;;;0.95;;
78410;SDS011;67706;51.074;-1.796;2023-03-01T08:12:26;1.52;;;0.70;;
78410;SDS011;67706;51.074;-1.796;2023-03-01T08:14:53;3.33;;;0.93;;
78410;SDS011;67706;51.074;-1.796;2023-03-01T08:17:19;6.00;;;1.20;;
78410;SDS011;67706;51.074;-1.796;2023-03-01T08:19:46;2.42;;;0.95;;
78410;SDS011;67706;51.074;-1.796;2023-03-01T08:22:13;1.73;;;1.00;;
78410;SDS011;67706;51.074;-1.796;2023-03-01T08:27:07;2.35;;;1.10;;
78410;SDS011;67706;51.074;-1.796;2023-03-01T08:32:00;2.47;;;1.30;;
78410;SDS011;67706;51.074;-1.796;2023-03-01T08:36:53;2.97;;;1.08;;
78410;SDS011;67706;51.074;-1.796;2023-03-01T08:41:48;1.15;;;0.55;;
78410;SDS011;67706;51.074;-1.796;2023-03-01T08:44:15;1.75;;;0.82;;
78410;SDS011;67706;51.074;-1.796;2023-03-01T08:46:42;2.42;;;0.80;;
78410;SDS011;67706;51.074;-1.796;2023-03-01T08:49:11;2.65;;;0.98;;
78410;SDS011;67706;51.074;-1.796;2023-03-01T08:51:39;2.47;;;0.82;;
78410;SDS011;67706;51.074;-1.796;2023-03-01T08:54:06;1.55;;;0.88;;
78410;SDS011;67706;51.074;-1.796;2023-03-01T08:56:36;2.67;;;1.17;;
78410;SDS011;67706;51.074;-1.796;2023-03-01T08:59:04;1.60;;;0.90;;
78410;SDS011;67706;51.074;-1.796;2023-03-01T09:01:31;2.45;;;1.05;;
78410;SDS011;67706;51.074;-1.796;2023-03-01T09:03:58;1.85;;;1.30;;
78410;SDS011;67706;51.074;-1.796;2023-03-01T09:06:25;3.70;;;1.30;;
78410;SDS011;67706;51.074;-1.796;2023-03-01T09:08:52;2.65;;;1.42;;
78410;SDS011;67706;51.074;-1.796;2023-03-01T09:11:20;1.58;;;0.75;;
78410;SDS011;67706;51.074;-1.796;2023-03-01T09:13:48;1.20;;;0.73;;
78410;SDS011;67706;51.074;-1.796;2023-03-01T09:16:17;2.17;;;0.80;;
78410;SDS011;67706;51.074;-1.796;2023-03-01T09:18:48;1.65;;;0.80;;
78410;SDS011;67706;51.074;-1.796;2023-03-01T09:21:16;1.95;;;0.80;;
78410;SDS011;67706;51.074;-1.796;2023-03-01T09:23:44;1.40;;;0.63;;
78410;SDS011;67706;51.074;-1.796;2023-03-01T09:26:12;2.13;;;0.88;;
78410;SDS011;67706;51.074;-1.796;2023-03-01T09:28:41;2.55;;;0.70;;
78410;SDS011;67706;51.074;-1.796;2023-03-01T09:31:09;2.17;;;0.50;;
78410;SDS011;67706;51.074;-1.796;2023-03-01T09:33:39;1.48;;;0.73;;
78410;SDS011;67706;51.074;-1.796;2023-03-01T09:36:08;4.75;;;0.90;;
78410;SDS011;67706;51.074;-1.796;2023-03-01T09:38:37;8.63;;;1.35;;
78410;SDS011;67706;51.074;-1.796;2023-03-01T09:41:09;1.63;;;0.90;;
78410;SDS011;67706;51.074;-1.796;2023-03-01T09:43:42;13.57;;;3.13;;
78410;SDS011;67706;51.074;-1.796;2023-03-01T09:46:14;9.43;;;3.63;;
78410;SDS011;67706;51.074;-1.796;2023-03-01T09:48:44;9.63;;;3.72;;
78410;SDS011;67706;51.074;-1.796;2023-03-01T09:51:17;5.82;;;1.98;;
78410;SDS011;67706;51.074;-1.796;2023-03-01T09:53:47;17.80;;;8.15;;
78410;SDS011;67706;51.074;-1.796;2023-03-01T09:56:16;26.42;;;13.20;;
78410;SDS011;67706;51.074;-1.796;2023-03-01T09:58:48;11.00;;;3.35;;
78410;SDS011;67706;51.074;-1.796;2023-03-01T10:01:25;2.22;;;1.00;;
78410;SDS011;67706;51.074;-1.796;2023-03-01T10:04:06;2.47;;;1.58;;
78410;SDS011;67706;51.074;-1.796;2023-03-01T10:06:45;5.07;;;0.85;;
78410;SDS011;67706;51.074;-1.796;2023-03-01T10:09:18;2.33;;;1.70;;
78410;SDS011;67706;51.074;-1.796;2023-03-01T10:11:47;1.88;;;0.90;;
78410;SDS011;67706;51.074;-1.796;2023-03-01T10:14:19;58.72;;;25.85;;
78410;SDS011;67706;51.074;-1.796;2023-03-01T10:16:57;65.80;;;28.30;;
78410;SDS011;67706;51.074;-1.796;2023-03-01T10:19:30;9.52;;;4.53;;
78410;SDS011;67706;51.074;-1.796;2023-03-01T10:22:00;67.43;;;27.67;;
78410;SDS011;67706;51.074;-1.796;2023-03-01T10:24:32;40.85;;;18.08;;
78410;SDS011;67706;51.074;-1.796;2023-03-01T10:27:03;29.83;;;13.27;;
78410;SDS011;67706;51.074;-1.796;2023-03-01T10:29:34;30.20;;;11.55;;
78410;SDS011;67706;51.074;-1.796;2023-03-01T10:32:05;2.95;;;1.25;;
78410;SDS011;67706;51.074;-1.796;2023-03-01T10:34:34;2.00;;;0.55;;
78410;SDS011;67706;51.074;-1.796;2023-03-01T10:37:09;1.23;;;0.65;;
78410;SDS011;67706;51.074;-1.796;2023-03-01T10:39:53;0.65;;;0.30;;
78410;SDS011;67706;51.074;-1.796;2023-03-01T10:42:25;0.63;;;0.50;;
78410;SDS011;67706;51.074;-1.796;2023-03-01T10:44:54;5.80;;;4.35;;
78410;SDS011;67706;51.074;-1.796;2023-03-01T10:47:21;3.78;;;1.15;;
78410;SDS011;67706;51.074;-1.796;2023-03-01T10:49:52;5.82;;;1.58;;
78410;SDS011;67706;51.074;-1.796;2023-03-01T10:52:22;22.23;;;1.95;;
78410;SDS011;67706;51.074;-1.796;2023-03-01T10:54:51;1.40;;;0.30;;
78410;SDS011;67706;51.074;-1.796;2023-03-01T10:57:32;1.58;;;0.90;;
78410;SDS011;67706;51.074;-1.796;2023-03-01T11:00:22;3.08;;;1.00;;
78410;SDS011;67706;51.074;-1.796;2023-03-01T11:03:01;3.00;;;1.08;;
78410;SDS011;67706;51.074;-1.796;2023-03-01T11:05:37;2.95;;;0.65;;
78410;SDS011;67706;51.074;-1.796;2023-03-01T11:08:28;2.35;;;0.80;;
78410;SDS011;67706;51.074;-1.796;2023-03-01T11:11:03;0.70;;;0.50;;
78410;SDS011;67706;51.074;-1.796;2023-03-01T11:13:46;0.65;;;0.35;;
78410;SDS011;67706;51.074;-1.796;2023-03-01T11:16:22;9.23;;;1.27;;
78410;SDS011;67706;51.074;-1.796;2023-03-01T11:21:47;3.25;;;0.90;;
78410;SDS011;67706;51.074;-1.796;2023-03-01T11:24:21;3.35;;;0.85;;
78410;SDS011;67706;51.074;-1.796;2023-03-01T11:26:54;4.47;;;0.95;;
78410;SDS011;67706;51.074;-1.796;2023-03-01T11:29:26;2.50;;;1.45;;
78410;SDS011;67706;51.074;-1.796;2023-03-01T11:31:57;3.70;;;1.50;;
78410;SDS011;67706;51.074;-1.796;2023-03-01T11:34:31;2.53;;;1.13;;
78410;SDS011;67706;51.074;-1.796;2023-03-01T11:37:09;1.63;;;0.80;;
78410;SDS011;67706;51.074;-1.796;2023-03-01T11:39:43;1.80;;;1.10;;
78410;SDS011;67706;51.074;-1.796;2023-03-01T11:42:18;8.48;;;1.15;;
78410;SDS011;67706;51.074;-1.796;2023-03-01T11:44:48;7.38;;;0.90;;
78410;SDS011;67706;51.074;-1.796;2023-03-01T11:47:24;5.97;;;2.63;;
78410;SDS011;67706;51.074;-1.796;2023-03-01T11:50:13;2.67;;;1.58;;
78410;SDS011;67706;51.074;-1.796;2023-03-01T11:52:54;4.45;;;1.90;;
78410;SDS011;67706;51.074;-1.796;2023-03-01T11:55:36;1.90;;;1.00;;
78410;SDS011;67706;51.074;-1.796;2023-03-01T11:58:17;3.97;;;1.50;;
78410;SDS011;67706;51.074;-1.796;2023-03-01T12:00:59;2.70;;;0.98;;
78410;SDS011;67706;51.074;-1.796;2023-03-01T12:03:39;6.15;;;2.30;;
78410;SDS011;67706;51.074;-1.796;2023-03-01T12:06:21;3.55;;;1.88;;
78410;SDS011;67706;51.074;-1.796;2023-03-01T12:09:09;2.88;;;1.20;;
78410;SDS011;67706;51.074;-1.796;2023-03-01T12:11:53;2.05;;;1.00;;
78410;SDS011;67706;51.074;-1.796;2023-03-01T12:17:39;2.60;;;1.05;;
78410;SDS011;67706;51.074;-1.796;2023-03-01T12:22:55;2.33;;;0.77;;
78410;SDS011;67706;51.074;-1.796;2023-03-01T12:25:35;3.17;;;0.73;;
78410;SDS011;67706;51.074;-1.796;2023-03-01T12:28:14;2.38;;;1.08;;
78410;SDS011;67706;51.074;-1.796;2023-03-01T12:30:53;2.28;;;0.70;;
78410;SDS011;67706;51.074;-1.796;2023-03-01T12:33:31;2.03;;;1.00;;
78410;SDS011;67706;51.074;-1.796;2023-03-01T12:36:15;3.55;;;1.15;;
78410;SDS011;67706;51.074;-1.796;2023-03-01T12:39:11;3.30;;;0.90;;
78410;SDS011;67706;51.074;-1.796;2023-03-01T12:41:52;1.42;;;0.80;;
78410;SDS011;67706;51.074;-1.796;2023-03-01T12:44:54;3.25;;;1.45;;
78410;SDS011;67706;51.074;-1.796;2023-03-01T12:47:41;3.15;;;0.88;;
78410;SDS011;67706;51.074;-1.796;2023-03-01T12:50:20;2.40;;;1.02;;
78410;SDS011;67706;51.074;-1.796;2023-03-01T12:52:50;2.67;;;1.02;;
78410;SDS011;67706;51.074;-1.796;2023-03-01T12:55:23;5.20;;;1.38;;
78410;SDS011;67706;51.074;-1.796;2023-03-01T12:57:59;3.58;;;1.05;;
78410;SDS011;67706;51.074;-1.796;2023-03-01T13:00:36;4.28;;;1.20;;
78410;SDS011;67706;51.074;-1.796;2023-03-01T13:03:12;1.73;;;0.82;;
78410;SDS011;67706;51.074;-1.796;2023-03-01T13:05:49;3.13;;;0.93;;
78410;SDS011;67706;51.074;-1.796;2023-03-01T13:08:29;3.15;;;1.00;;
78410;SDS011;67706;51.074;-1.796;2023-03-01T13:11:00;5.45;;;1.80;;
78410;SDS011;67706;51.074;-1.796;2023-03-01T13:13:31;2.47;;;0.95;;
78410;SDS011;67706;51.074;-1.796;2023-03-01T13:15:58;2.80;;;1.15;;
78410;SDS011;67706;51.074;-1.796;2023-03-01T13:18:49;4.18;;;1.25;;
78410;SDS011;67706;51.074;-1.796;2023-03-01T13:21:28;1.95;;;0.85;;
78410;SDS011;67706;51.074;-1.796;2023-03-01T13:23:56;2.17;;;1.23;;
78410;SDS011;67706;51.074;-1.796;2023-03-01T13:28:52;2.10;;;1.27;;
78410;SDS011;67706;51.074;-1.796;2023-03-01T13:37:29;2.65;;;1.17;;
78410;SDS011;67706;51.074;-1.796;2023-03-01T13:39:58;1.42;;;1.00;;
78410;SDS011;67706;51.074;-1.796;2023-03-01T13:42:37;2.88;;;0.82;;
78410;SDS011;67706;51.074;-1.796;2023-03-01T13:45:23;2.65;;;1.00;;
78410;SDS011;67706;51.074;-1.796;2023-03-01T13:48:00;3.58;;;1.52;;
78410;SDS011;67706;51.074;-1.796;2023-03-01T13:50:33;3.58;;;1.40;;
78410;SDS011;67706;51.074;-1.796;2023-03-01T13:53:10;2.47;;;1.10;;
78410;SDS011;67706;51.074;-1.796;2023-03-01T13:58:15;1.25;;;0.57;;
78410;SDS011;67706;51.074;-1.796;2023-03-01T14:00:46;2.05;;;0.70;;
78410;SDS011;67706;51.074;-1.796;2023-03-01T14:03:13;0.80;;;0.40;;
78410;SDS011;67706;51.074;-1.796;2023-03-01T14:05:42;2.38;;;1.08;;
78410;SDS011;67706;51.074;-1.796;2023-03-01T14:08:23;1.52;;;0.82;;
78410;SDS011;67706;51.074;-1.796;2023-03-01T14:11:02;1.40;;;0.70;;
78410;SDS011;67706;51.074;-1.796;2023-03-01T14:13:48;1.98;;;0.80;;
78410;SDS011;67706;51.074;-1.796;2023-03-01T14:16:29;1.02;;;0.63;;
78410;SDS011;67706;51.074;-1.796;2023-03-01T14:19:07;7.20;;;3.10;;
78410;SDS011;67706;51.074;-1.796;2023-03-01T14:24:46;5.63;;;2.70;;
78410;SDS011;67706;51.074;-1.796;2023-03-01T14:27:15;1.27;;;0.52;;
78410;SDS011;67706;51.074;-1.796;2023-03-01T14:29:43;0.77;;;0.50;;
78410;SDS011;67706;51.074;-1.796;2023-03-01T14:32:15;3.13;;;1.50;;
78410;SDS011;67706;51.074;-1.796;2023-03-01T14:34:46;4.63;;;2.33;;
78410;SDS011;67706;51.074;-1.796;2023-03-01T14:37:24;4.68;;;2.05;;
78410;SDS011;67706;51.074;-1.796;2023-03-01T14:39:53;2.60;;;1.33;;
78410;SDS011;67706;51.074;-1.796;2023-03-01T14:42:21;4.53;;;1.50;;
78410;SDS011;67706;51.074;-1.796;2023-03-01T14:44:51;2.92;;;1.27;;
78410;SDS011;67706;51.074;-1.796;2023-03-01T14:47:22;5.25;;;2.42;;
78410;SDS011;67706;51.074;-1.796;2023-03-01T14:49:54;5.75;;;2.10;;
78410;SDS011;67706;51.074;-1.796;2023-03-01T14:52:25;1.88;;;0.90;;
78410;SDS011;67706;51.074;-1.796;2023-03-01T14:55:01;1.73;;;1.20;;
78410;SDS011;67706;51.074;-1.796;2023-03-01T14:57:30;4.25;;;1.65;;
78410;SDS011;67706;51.074;-1.796;2023-03-01T14:59:57;4.15;;;1.60;;
78410;SDS011;67706;51.074;-1.796;2023-03-01T15:02:31;2.78;;;1.42;;
78410;SDS011;67706;51.074;-1.796;2023-03-01T15:05:00;4.60;;;1.77;;
78410;SDS011;67706;51.074;-1.796;2023-03-01T15:07:30;1.70;;;0.98;;
78410;SDS011;67706;51.074;-1.796;2023-03-01T15:09:58;1.85;;;0.80;;
78410;SDS011;67706;51.074;-1.796;2023-03-01T15:12:36;1.10;;;0.68;;
78410;SDS011;67706;51.074;-1.796;2023-03-01T15:15:30;1.42;;;0.60;;
78410;SDS011;67706;51.074;-1.796;2023-03-01T15:18:02;1.10;;;0.68;;
78410;SDS011;67706;51.074;-1.796;2023-03-01T15:20:32;9.40;;;1.23;;
78410;SDS011;67706;51.074;-1.796;2023-03-01T15:23:01;1.17;;;0.70;;
78410;SDS011;67706;51.074;-1.796;2023-03-01T15:25:30;0.95;;;0.60;;
78410;SDS011;67706;51.074;-1.796;2023-03-01T15:27:58;3.38;;;1.67;;
78410;SDS011;67706;51.074;-1.796;2023-03-01T15:30:27;4.18;;;1.10;;
78410;SDS011;67706;51.074;-1.796;2023-03-01T15:39:05;1.42;;;0.90;;
78410;SDS011;67706;51.074;-1.796;2023-03-01T15:41:50;1.38;;;0.80;;
78410;SDS011;67706;51.074;-1.796;2023-03-01T15:44:17;1.77;;;1.10;;
78410;SDS011;67706;51.074;-1.796;2023-03-01T15:46:52;1.27;;;0.70;;
78410;SDS011;67706;51.074;-1.796;2023-03-01T15:49:27;2.15;;;0.80;;
78410;SDS011;67706;51.074;-1.796;2023-03-01T15:52:01;2.67;;;1.13;;
78410;SDS011;67706;51.074;-1.796;2023-03-01T15:54:28;1.58;;;1.05;;
78410;SDS011;67706;51.074;-1.796;2023-03-01T15:56:55;2.38;;;0.93;;
78410;SDS011;67706;51.074;-1.796;2023-03-01T15:59:22;2.25;;;0.82;;
78410;SDS011;67706;51.074;-1.796;2023-03-01T16:01:49;1.98;;;0.93;;
78410;SDS011;67706;51.074;-1.796;2023-03-01T16:04:16;2.72;;;1.13;;
78410;SDS011;67706;51.074;-1.796;2023-03-01T16:06:49;2.88;;;1.42;;
78410;SDS011;67706;51.074;-1.796;2023-03-01T16:09:20;1.70;;;1.00;;
78410;SDS011;67706;51.074;-1.796;2023-03-01T16:11:48;3.10;;;1.00;;